createdAt,value
2022-11-17T00:02:42.409Z,15.85
2022-11-17T00:07:36.137Z,17.48
2022-11-17T00:12:48.402Z,20.88
2022-11-17T00:17:42.893Z,16.60
2022-11-17T00:22:37.382Z,17.23
2022-11-17T00:27:31.143Z,16.15
2022-11-17T00:32:43.493Z,18.15
2022-11-17T00:37:38.848Z,16.30
2022-11-17T00:42:33.031Z,15.52
2022-11-17T00:47:26.083Z,16.73
2022-11-17T00:52:20.358Z,16.25
2022-11-17T00:57:14.752Z,19.63
2022-11-17T01:02:09.184Z,17.23
2022-11-17T01:07:03.345Z,17.13
2022-11-17T01:11:57.162Z,15.73
2022-11-17T01:16:51.626Z,14.70
2022-11-17T01:21:46.265Z,17.92
2022-11-17T01:26:41.638Z,15.10
2022-11-17T01:31:40.671Z,17.33
2022-11-17T01:36:57.665Z,15.37
2022-11-17T01:41:51.683Z,20.40
2022-11-17T01:46:45.826Z,19.27
2022-11-17T01:51:42.597Z,16.38
2022-11-17T01:56:40.729Z,16.58
2022-11-17T02:01:34.920Z,17.33
2022-11-17T02:06:32.189Z,15.70
2022-11-17T02:11:25.983Z,15.90
2022-11-17T02:16:19.457Z,15.02
2022-11-17T02:21:34.295Z,18.27
2022-11-17T02:27:04.903Z,13.32
2022-11-17T02:32:23.329Z,13.95
2022-11-17T02:37:19.433Z,13.38
2022-11-17T02:42:20.677Z,15.10
2022-11-17T02:47:18.486Z,18.17
2022-11-17T02:52:11.744Z,17.02
2022-11-17T02:57:05.823Z,14.48
2022-11-17T03:02:41.577Z,18.35
2022-11-17T03:07:59.259Z,13.38
2022-11-17T03:13:01.828Z,13.27
2022-11-17T03:18:26.951Z,13.75
2022-11-17T03:23:25.165Z,12.68
2022-11-17T03:28:20.961Z,11.30
2022-11-17T03:33:23.324Z,13.77
2022-11-17T03:38:18.055Z,12.00
2022-11-17T03:43:13.573Z,13.23
2022-11-17T03:48:22.530Z,12.60
2022-11-17T03:53:17.030Z,13.85
2022-11-17T03:58:24.020Z,14.40
2022-11-17T04:03:17.889Z,12.32
2022-11-17T04:08:10.822Z,14.50
2022-11-17T04:13:22.782Z,12.63
2022-11-17T04:18:17.904Z,11.55
2022-11-17T04:23:15.112Z,17.48
2022-11-17T04:28:27.161Z,17.27
2022-11-17T04:33:21.254Z,13.85
2022-11-17T04:38:15.401Z,13.07
2022-11-17T04:43:09.324Z,15.98
2022-11-17T04:48:03.553Z,16.33
2022-11-17T04:52:57.545Z,14.15
2022-11-17T04:57:51.294Z,12.40
2022-11-17T05:02:45.721Z,13.68
2022-11-17T05:07:39.753Z,12.45
2022-11-17T05:12:51.939Z,14.00
2022-11-17T05:17:45.825Z,13.13
2022-11-17T05:23:01.280Z,17.73
2022-11-17T05:27:57.734Z,16.65
2022-11-17T05:32:51.777Z,20.05
2022-11-17T05:37:45.485Z,22.80
2022-11-17T05:42:39.275Z,27.80
2022-11-17T05:47:33.700Z,24.08
2022-11-17T05:52:26.975Z,26.25
2022-11-17T05:57:28.044Z,26.35
2022-11-17T06:02:27.519Z,26.33
2022-11-17T06:07:20.961Z,23.50
2022-11-17T06:12:20.588Z,27.63
2022-11-17T06:17:25.924Z,18.02
2022-11-17T06:22:19.182Z,16.38
2022-11-17T06:27:15.266Z,24.88
2022-11-17T06:32:09.184Z,17.83
2022-11-17T06:37:02.679Z,20.55
2022-11-17T06:41:56.760Z,15.43
2022-11-17T06:46:51.045Z,22.58
2022-11-17T06:51:45.749Z,27.73
2022-11-17T06:56:39.510Z,31.55
2022-11-17T07:01:33.562Z,26.35
2022-11-17T07:06:27.488Z,23.40
2022-11-17T07:11:20.517Z,27.95
2022-11-17T07:16:22.884Z,26.45
2022-11-17T07:21:18.571Z,27.00
2022-11-17T07:26:12.648Z,36.30
2022-11-17T07:31:08.980Z,25.58
2022-11-17T07:36:11.905Z,27.10
2022-11-17T07:41:06.518Z,29.48
2022-11-17T07:46:04.629Z,24.00
2022-11-17T07:51:00.013Z,27.83
2022-11-17T07:55:54.317Z,24.50
2022-11-17T08:00:48.483Z,25.40
2022-11-17T08:05:43.784Z,21.88
2022-11-17T08:10:38.331Z,22.25
2022-11-17T08:15:32.964Z,20.38
2022-11-17T08:20:26.216Z,22.02
2022-11-17T08:25:24.832Z,17.33
2022-11-17T08:30:38.506Z,16.67
2022-11-17T08:35:37.470Z,19.33
2022-11-17T08:45:27.013Z,15.27
2022-11-17T08:50:21.471Z,16.50
2022-11-17T08:55:17.356Z,26.65
2022-11-17T09:00:11.415Z,26.95
2022-11-17T09:05:07.010Z,27.45
2022-11-17T09:10:01.323Z,31.65
2022-11-17T09:14:54.965Z,29.48
2022-11-17T09:19:49.432Z,30.77
2022-11-17T09:24:43.233Z,31.33
2022-11-17T09:29:36.219Z,30.13
2022-11-17T09:34:30.421Z,30.23
2022-11-17T09:39:25.334Z,34.85
2022-11-17T09:44:43.261Z,29.17
2022-11-17T09:50:02.950Z,26.65
2022-11-17T09:55:21.576Z,29.88
2022-11-17T10:00:22.352Z,26.65
2022-11-17T10:05:27.329Z,23.27
2022-11-17T10:10:26.180Z,27.88
2022-11-17T10:15:26.949Z,26.50
2022-11-17T10:20:20.942Z,24.98
2022-11-17T10:25:41.527Z,28.92
2022-11-17T10:30:35.556Z,26.38
2022-11-17T10:35:36.863Z,26.38
2022-11-17T10:40:32.569Z,33.08
2022-11-17T10:45:25.914Z,43.20
2022-11-17T10:50:47.512Z,25.88
2022-11-17T10:55:46.420Z,33.15
2022-11-17T11:00:40.900Z,29.42
2022-11-17T11:05:35.337Z,29.92
2022-11-17T11:10:35.668Z,42.47
2022-11-17T11:15:33.443Z,36.60
2022-11-17T11:21:13.788Z,32.45
2022-11-17T11:26:31.074Z,33.92
2022-11-17T11:31:33.997Z,31.70
2022-11-17T11:36:54.128Z,30.63
2022-11-17T11:42:22.367Z,32.85
2022-11-17T11:47:47.612Z,29.03
2022-11-17T11:52:45.878Z,30.52
2022-11-17T11:58:19.672Z,32.03
2022-11-17T12:03:40.844Z,27.88
2022-11-17T12:08:41.214Z,26.98
2022-11-17T12:13:36.141Z,30.75
2022-11-17T12:18:34.213Z,26.45
2022-11-17T12:23:29.597Z,25.05
2022-11-17T12:28:39.829Z,26.98
2022-11-17T12:33:54.917Z,29.80
2022-11-17T12:38:48.844Z,26.50
2022-11-17T12:43:43.059Z,25.10
2022-11-17T12:48:42.547Z,27.00
2022-11-17T12:53:35.721Z,26.58
2022-11-17T12:58:36.177Z,27.25
2022-11-17T13:04:09.539Z,27.90
2022-11-17T13:09:24.382Z,28.52
2022-11-17T13:14:19.224Z,34.67
2022-11-17T13:19:38.755Z,31.05
2022-11-17T13:24:37.466Z,31.05
2022-11-17T13:29:30.411Z,31.57
2022-11-17T13:34:24.441Z,32.10
2022-11-17T13:39:21.743Z,31.50
2022-11-17T13:44:24.022Z,32.92
2022-11-17T13:49:36.709Z,31.30
2022-11-17T13:54:29.700Z,35.67
2022-11-17T13:59:43.045Z,44.65
2022-11-17T14:04:37.636Z,32.65
2022-11-17T14:09:35.183Z,32.25
2022-11-17T14:14:44.328Z,33.13
2022-11-17T14:19:37.661Z,36.20
2022-11-17T14:24:32.173Z,32.88
2022-11-17T14:29:25.496Z,43.00
2022-11-17T14:34:21.074Z,42.40
2022-11-17T14:39:18.695Z,42.00
2022-11-17T14:44:13.728Z,45.60
2022-11-17T14:49:46.170Z,38.33
2022-11-17T14:55:20.072Z,41.50
2022-11-17T15:00:20.124Z,35.95
2022-11-17T15:05:14.771Z,34.13
2022-11-17T15:10:11.366Z,33.25
2022-11-17T15:15:06.546Z,35.90
2022-11-17T15:20:01.939Z,35.45
2022-11-17T15:24:56.342Z,35.58
2022-11-17T15:29:50.898Z,34.33
2022-11-17T15:34:45.094Z,39.97
2022-11-17T15:39:39.070Z,42.17
2022-11-17T15:44:31.379Z,42.90
2022-11-17T15:49:25.835Z,40.83
2022-11-17T15:54:21.062Z,42.63
2022-11-17T15:59:15.645Z,46.38
2022-11-17T16:04:11.453Z,45.03
2022-11-17T16:09:06.577Z,48.83
2022-11-17T16:14:01.123Z,51.60
2022-11-17T16:18:55.784Z,40.47
2022-11-17T16:23:51.056Z,45.03
2022-11-17T16:28:44.724Z,42.03
2022-11-17T16:33:38.755Z,45.45
2022-11-17T16:38:32.687Z,44.67
2022-11-17T16:43:27.263Z,45.65
2022-11-17T16:48:20.783Z,47.95
2022-11-17T16:53:14.783Z,55.60
2022-11-17T16:58:08.729Z,56.00
2022-11-17T17:03:03.985Z,57.03
2022-11-17T17:07:57.788Z,51.50
2022-11-17T17:12:51.941Z,56.28
2022-11-17T17:17:45.867Z,56.40
2022-11-17T17:22:39.985Z,65.35
2022-11-17T17:27:34.449Z,57.80
2022-11-17T17:32:27.607Z,62.22
2022-11-17T17:37:21.356Z,69.18
2022-11-17T17:42:15.573Z,75.75
2022-11-17T17:47:09.558Z,62.95
2022-11-17T17:52:03.064Z,60.47
2022-11-17T17:56:58.577Z,57.63
2022-11-17T18:01:52.773Z,61.50
2022-11-17T18:07:06.059Z,58.63
2022-11-17T18:11:59.286Z,66.82
2022-11-17T18:16:54.298Z,62.75
2022-11-17T18:21:48.353Z,60.67
2022-11-17T18:26:42.783Z,63.63
2022-11-17T18:31:38.591Z,58.75
2022-11-17T18:36:33.136Z,55.75
2022-11-17T18:41:27.367Z,71.75
2022-11-17T18:46:23.372Z,55.25
2022-11-17T18:51:20.290Z,56.38
2022-11-17T18:56:15.481Z,55.95
2022-11-17T19:01:39.025Z,55.30
2022-11-17T19:06:33.457Z,51.35
2022-11-17T19:11:29.988Z,48.20
2022-11-17T19:16:25.859Z,49.63
2022-11-17T19:21:40.096Z,45.88
2022-11-17T19:26:36.904Z,46.30
2022-11-17T19:31:30.910Z,52.42
2022-11-17T19:36:30.538Z,51.85
2022-11-17T19:41:45.787Z,53.70
2022-11-17T19:46:40.492Z,46.33
2022-11-17T19:51:39.751Z,48.58
2022-11-17T19:56:38.806Z,49.22
2022-11-17T20:01:33.058Z,53.22
2022-11-17T20:06:29.320Z,47.60
2022-11-17T20:11:26.679Z,47.63
2022-11-17T20:16:22.458Z,46.15
2022-11-17T20:21:17.029Z,45.55
2022-11-17T20:26:16.629Z,57.42
2022-11-17T20:31:23.400Z,53.85
2022-11-17T20:36:19.655Z,58.35
2022-11-17T20:41:14.067Z,56.95
2022-11-17T20:46:07.822Z,64.22
2022-11-17T20:51:07.381Z,62.35
2022-11-17T20:56:02.592Z,61.03
2022-11-17T21:00:56.300Z,60.67
2022-11-17T21:05:59.246Z,75.03
2022-11-17T21:11:00.384Z,56.88
2022-11-17T21:16:23.842Z,67.05
2022-11-17T21:21:56.474Z,58.22
2022-11-17T21:26:51.524Z,63.30
2022-11-17T21:32:24.726Z,66.30
2022-11-17T21:37:25.703Z,65.60
2022-11-17T21:42:20.808Z,64.40
2022-11-17T21:47:15.477Z,66.32
2022-11-17T21:52:09.832Z,67.10
2022-11-17T21:57:03.608Z,71.55
2022-11-17T22:01:57.746Z,63.97
2022-11-17T22:06:51.280Z,69.70
2022-11-17T22:11:45.625Z,72.25
2022-11-17T22:16:44.041Z,65.95
2022-11-17T22:21:39.181Z,68.70
2022-11-17T22:26:33.190Z,68.25
2022-11-17T22:31:26.993Z,61.13
2022-11-17T22:36:21.273Z,65.95
2022-11-17T22:41:17.421Z,62.17
2022-11-17T22:46:12.896Z,62.58
2022-11-17T22:51:09.183Z,55.75
2022-11-17T22:56:08.103Z,64.00
2022-11-17T23:01:07.102Z,63.83
2022-11-17T23:06:24.711Z,71.93
2022-11-17T23:16:33.540Z,57.53
2022-11-17T23:21:28.003Z,61.05
2022-11-17T23:26:22.036Z,56.97
2022-11-17T23:31:17.226Z,64.45
2022-11-17T23:36:33.942Z,63.20
2022-11-17T23:41:27.922Z,61.63
2022-11-17T23:46:24.100Z,59.47
2022-11-17T23:51:20.953Z,65.72
2022-11-17T23:56:16.017Z,65.68
